createdAt,value
2023-04-11T00:00:29.325Z,97769.63
2023-04-11T00:03:00.091Z,97759.44
2023-04-11T00:05:28.072Z,97761.63
2023-04-11T00:07:54.587Z,97753.63
2023-04-11T00:10:21.117Z,97736.88
2023-04-11T00:12:47.637Z,97765.50
2023-04-11T00:15:16.171Z,97756.56
2023-04-11T00:17:45.782Z,97750.44
2023-04-11T00:20:12.982Z,97755.44
2023-04-11T00:22:39.527Z,97750.78
2023-04-11T00:25:07.097Z,97754.72
2023-04-11T00:27:33.539Z,97752.88
2023-04-11T00:30:00.747Z,97757.28
2023-04-11T00:32:27.649Z,97768.56
2023-04-11T00:34:54.093Z,97761.50
2023-04-11T00:37:21.502Z,97774.25
2023-04-11T00:39:50.487Z,97780.06
2023-04-11T00:42:17.130Z,97702.34
2023-04-11T00:44:44.790Z,97755.00
2023-04-11T00:47:12.057Z,97759.19
2023-04-11T00:49:39.713Z,97730.03
2023-04-11T00:52:07.092Z,97752.34
2023-04-11T00:54:33.693Z,97757.03
2023-04-11T00:57:04.387Z,97760.03
2023-04-11T00:59:32.486Z,97765.38
2023-04-11T01:01:59.851Z,97764.09
2023-04-11T01:04:26.784Z,97769.22
2023-04-11T01:06:59.063Z,97747.53
2023-04-11T01:09:27.433Z,97749.06
2023-04-11T01:11:54.252Z,97755.88
2023-04-11T01:14:22.106Z,97761.09
2023-04-11T01:16:50.799Z,97754.16
2023-04-11T01:19:22.151Z,97739.25
2023-04-11T01:21:50.442Z,97772.47
2023-04-11T01:24:17.623Z,97748.41
2023-04-11T01:26:44.656Z,97762.06
2023-04-11T01:29:11.747Z,97759.84
2023-04-11T01:31:38.548Z,97748.28
2023-04-11T01:34:05.532Z,97770.50
2023-04-11T01:36:32.268Z,97774.31
2023-04-11T01:38:59.333Z,97783.38
2023-04-11T01:41:29.434Z,97776.31
2023-04-11T01:43:56.722Z,97774.09
2023-04-11T01:46:25.118Z,97771.69
2023-04-11T01:48:54.702Z,97778.97
2023-04-11T01:51:21.533Z,97770.16
2023-04-11T01:53:48.120Z,97748.06
2023-04-11T01:56:14.814Z,97750.94
2023-04-11T01:58:41.337Z,97755.09
2023-04-11T02:01:08.073Z,97756.72
2023-04-11T02:03:34.868Z,97753.50
2023-04-11T02:06:01.623Z,97752.56
2023-04-11T02:08:29.319Z,97757.78
2023-04-11T02:10:55.777Z,97754.09
2023-04-11T02:13:22.208Z,97756.97
2023-04-11T02:15:48.768Z,97762.75
2023-04-11T02:18:15.265Z,97765.31
2023-04-11T02:20:41.668Z,97769.69
2023-04-11T02:23:08.196Z,97768.56
2023-04-11T02:25:34.644Z,97761.59
2023-04-11T02:28:01.211Z,97762.28
2023-04-11T02:30:27.696Z,97759.75
2023-04-11T02:32:54.261Z,97761.13
2023-04-11T02:35:20.783Z,97767.50
2023-04-11T02:37:47.193Z,97773.06
2023-04-11T02:40:13.799Z,97775.16
2023-04-11T02:42:43.035Z,97726.50
2023-04-11T02:45:10.286Z,97764.94
2023-04-11T02:47:36.861Z,97754.53
2023-04-11T02:50:06.815Z,97772.81
2023-04-11T02:52:42.099Z,97771.19
2023-04-11T02:55:10.210Z,97769.34
2023-04-11T02:57:36.964Z,97780.34
2023-04-11T03:00:07.206Z,97785.00
2023-04-11T03:02:43.868Z,97788.34
2023-04-11T03:05:11.713Z,97801.78
2023-04-11T03:07:40.515Z,97803.06
2023-04-11T03:10:09.075Z,97808.50
2023-04-11T03:12:35.610Z,97817.19
2023-04-11T03:15:04.917Z,97818.34
2023-04-11T03:17:31.960Z,97803.91
2023-04-11T03:19:58.828Z,97814.09
2023-04-11T03:22:25.981Z,97814.56
2023-04-11T03:24:52.530Z,97801.84
2023-04-11T03:27:21.668Z,97799.81
2023-04-11T03:29:52.917Z,97818.31
2023-04-11T03:32:26.901Z,97815.88
2023-04-11T03:34:53.477Z,97810.31
2023-04-11T03:37:21.681Z,97808.94
2023-04-11T03:39:48.325Z,97817.53
2023-04-11T03:42:16.090Z,97809.53
2023-04-11T03:44:42.593Z,97806.06
2023-04-11T03:47:09.093Z,97724.69
2023-04-11T03:49:40.785Z,97792.94
2023-04-11T03:52:09.690Z,97809.16
2023-04-11T03:54:37.629Z,97802.16
2023-04-11T03:57:06.084Z,97802.63
2023-04-11T03:59:34.238Z,97793.63
2023-04-11T04:02:07.582Z,97790.38
2023-04-11T04:04:38.944Z,97795.69
2023-04-11T04:07:18.100Z,97791.91
2023-04-11T04:09:44.655Z,97808.53
2023-04-11T04:12:11.604Z,97823.09
2023-04-11T04:15:03.638Z,97830.59
2023-04-11T04:17:30.670Z,97828.16
2023-04-11T04:19:58.379Z,97821.28
2023-04-11T04:22:26.648Z,97834.00
2023-04-11T04:24:58.286Z,97838.06
2023-04-11T04:27:30.207Z,97823.78
2023-04-11T04:30:03.774Z,97806.06
2023-04-11T04:32:54.883Z,97822.91
2023-04-11T04:35:22.785Z,97835.78
2023-04-11T04:37:49.916Z,97835.19
2023-04-11T04:40:38.027Z,97838.88
2023-04-11T04:43:09.041Z,97847.88
2023-04-11T04:45:41.541Z,97845.31
2023-04-11T04:48:08.516Z,97849.25
2023-04-11T04:50:35.484Z,97852.19
2023-04-11T04:53:01.884Z,97851.31
2023-04-11T04:55:28.781Z,97845.25
2023-04-11T04:57:55.647Z,97855.31
2023-04-11T05:00:23.312Z,97857.97
2023-04-11T05:02:54.645Z,97869.88
2023-04-11T05:05:21.674Z,97873.00
2023-04-11T05:07:48.391Z,97882.56
2023-04-11T05:10:15.727Z,97880.22
2023-04-11T05:12:43.823Z,97883.88
2023-04-11T05:15:12.385Z,97888.38
2023-04-11T05:17:40.580Z,97881.47
2023-04-11T05:20:09.071Z,97880.34
2023-04-11T05:22:37.935Z,97883.19
2023-04-11T05:25:05.442Z,97893.09
2023-04-11T05:27:32.346Z,97895.06
2023-04-11T05:30:00.576Z,97887.25
2023-04-11T05:32:28.237Z,97899.28
2023-04-11T05:34:59.131Z,97902.09
2023-04-11T05:37:46.182Z,97901.16
2023-04-11T05:40:12.787Z,97896.59
2023-04-11T05:42:39.295Z,97899.41
2023-04-11T05:45:06.429Z,97892.09
2023-04-11T05:47:32.971Z,97916.19
2023-04-11T05:49:59.819Z,97913.13
2023-04-11T05:52:27.187Z,97910.97
2023-04-11T05:54:53.755Z,97930.59
2023-04-11T05:57:20.915Z,97920.56
2023-04-11T05:59:49.845Z,97935.41
2023-04-11T06:02:16.804Z,97932.59
2023-04-11T06:04:43.472Z,97935.06
2023-04-11T06:07:10.167Z,97947.97
2023-04-11T06:09:36.768Z,97944.81
2023-04-11T06:12:03.621Z,97946.25
2023-04-11T06:14:30.069Z,97940.25
2023-04-11T06:16:56.591Z,97951.66
2023-04-11T06:19:22.997Z,97944.50
2023-04-11T06:21:49.552Z,97941.03
2023-04-11T06:24:18.537Z,97945.09
2023-04-11T06:26:46.573Z,97944.63
2023-04-11T06:29:13.059Z,97957.47
2023-04-11T06:31:39.834Z,97943.59
2023-04-11T06:34:06.360Z,97957.47
2023-04-11T06:36:33.046Z,97959.09
2023-04-11T06:38:59.487Z,97964.44
2023-04-11T06:41:25.890Z,97963.28
2023-04-11T06:43:52.371Z,97958.34
2023-04-11T06:46:18.924Z,97969.47
2023-04-11T06:48:45.346Z,97964.84
2023-04-11T06:51:11.914Z,97966.03
2023-04-11T06:53:38.407Z,97985.81
2023-04-11T06:56:05.571Z,97980.78
2023-04-11T06:58:32.040Z,97976.72
2023-04-11T07:00:58.760Z,97988.25
2023-04-11T07:03:25.356Z,97989.91
2023-04-11T07:05:52.356Z,97975.94
2023-04-11T07:08:18.794Z,97970.88
2023-04-11T07:10:45.238Z,97978.47
2023-04-11T07:13:11.699Z,97976.34
2023-04-11T07:15:38.150Z,97963.88
2023-04-11T07:18:04.717Z,97977.47
2023-04-11T07:20:32.973Z,97972.28
2023-04-11T07:22:59.468Z,97970.81
2023-04-11T07:25:27.146Z,97972.06
2023-04-11T07:27:53.693Z,97963.75
2023-04-11T07:30:20.270Z,97966.25
2023-04-11T07:32:47.066Z,97968.84
2023-04-11T07:35:14.242Z,97987.66
2023-04-11T07:37:42.285Z,97981.13
2023-04-11T07:40:14.026Z,97987.22
2023-04-11T07:42:41.307Z,97993.72
2023-04-11T07:45:08.492Z,97931.06
2023-04-11T07:47:34.965Z,97980.44
2023-04-11T07:50:01.943Z,97985.81
2023-04-11T07:52:28.652Z,97989.59
2023-04-11T07:54:55.814Z,98002.50
2023-04-11T07:57:22.451Z,98004.69
2023-04-11T07:59:48.894Z,97987.47
2023-04-11T08:02:15.404Z,97989.84
2023-04-11T08:04:42.196Z,97981.53
2023-04-11T08:07:08.766Z,97984.03
2023-04-11T08:09:35.778Z,97960.38
2023-04-11T08:12:02.336Z,97986.97
2023-04-11T08:14:28.826Z,97990.66
2023-04-11T08:16:55.289Z,97991.28
2023-04-11T08:19:21.941Z,97988.97
2023-04-11T08:21:48.448Z,97988.88
2023-04-11T08:24:14.945Z,97992.19
2023-04-11T08:26:41.489Z,97987.94
2023-04-11T08:29:11.335Z,97999.72
2023-04-11T08:31:45.591Z,98000.00
2023-04-11T08:34:12.825Z,98009.59
2023-04-11T08:36:39.400Z,97999.59
2023-04-11T08:39:06.674Z,98017.59
2023-04-11T08:41:33.465Z,98008.94
2023-04-11T08:44:00.579Z,98031.00
2023-04-11T08:46:27.212Z,98027.19
2023-04-11T08:48:53.788Z,98020.00
2023-04-11T08:51:24.868Z,98023.09
2023-04-11T08:53:53.923Z,98009.50
2023-04-11T08:56:20.594Z,98023.34
2023-04-11T08:58:47.996Z,98003.25
2023-04-11T09:01:35.047Z,98034.06
2023-04-11T09:04:05.366Z,98020.56
2023-04-11T09:06:33.673Z,98018.47
2023-04-11T09:09:01.857Z,98026.91
2023-04-11T09:11:28.335Z,98023.31
2023-04-11T09:14:09.318Z,98025.91
2023-04-11T09:16:36.321Z,98016.63
2023-04-11T09:19:03.071Z,98022.56
2023-04-11T09:21:31.067Z,98019.19
2023-04-11T09:24:17.947Z,98017.56
2023-04-11T09:26:44.405Z,97997.34
2023-04-11T09:29:11.038Z,98018.69
2023-04-11T09:31:43.095Z,98023.00
2023-04-11T09:34:09.851Z,98025.94
2023-04-11T09:36:36.476Z,97965.03
2023-04-11T09:39:17.182Z,98025.66
2023-04-11T09:41:43.975Z,98015.06
2023-04-11T09:44:10.543Z,98021.44
2023-04-11T09:46:37.454Z,98025.31
2023-04-11T09:49:04.374Z,98030.16
2023-04-11T09:51:35.761Z,98016.81
2023-04-11T09:54:04.648Z,98036.38
2023-04-11T09:56:31.759Z,98031.13
2023-04-11T09:59:00.131Z,98027.41
2023-04-11T10:01:27.439Z,97982.41
2023-04-11T10:03:56.151Z,98039.09
2023-04-11T10:06:31.254Z,98032.97
2023-04-11T10:09:10.841Z,98020.59
2023-04-11T10:11:40.196Z,98041.97
2023-04-11T10:14:06.666Z,98039.06
2023-04-11T10:16:34.288Z,98044.84
2023-04-11T10:19:01.105Z,98047.97
2023-04-11T10:21:27.758Z,98043.41
2023-04-11T10:24:17.766Z,98050.91
2023-04-11T10:26:52.124Z,98058.81
2023-04-11T10:29:33.834Z,98071.94
2023-04-11T10:32:11.565Z,98063.41
2023-04-11T10:35:01.481Z,98075.81
2023-04-11T10:37:35.623Z,98076.34
2023-04-11T10:40:02.006Z,98067.28
2023-04-11T10:42:36.599Z,98058.03
2023-04-11T10:45:40.468Z,98069.16
2023-04-11T10:48:11.696Z,98059.44
2023-04-11T10:50:44.449Z,98072.78
2023-04-11T10:53:36.536Z,98083.53
2023-04-11T10:56:03.258Z,98095.44
2023-04-11T10:58:39.282Z,98095.09
2023-04-11T11:01:21.290Z,98082.19
2023-04-11T11:03:59.640Z,98095.22
2023-04-11T11:06:26.526Z,98097.84
2023-04-11T11:08:53.125Z,98093.59
2023-04-11T11:11:19.773Z,98075.00
2023-04-11T11:13:48.147Z,98077.03
2023-04-11T11:16:23.149Z,98055.44
2023-04-11T11:18:53.675Z,98069.88
2023-04-11T11:21:27.668Z,98070.50
2023-04-11T11:24:02.546Z,98004.53
2023-04-11T11:26:56.221Z,98066.25
2023-04-11T11:29:35.702Z,98052.66
2023-04-11T11:32:05.522Z,98060.88
2023-04-11T11:34:34.409Z,98059.41
2023-04-11T11:37:06.793Z,98057.09
2023-04-11T11:39:35.361Z,98045.22
2023-04-11T11:42:02.365Z,98062.13
2023-04-11T11:44:31.066Z,98081.81
2023-04-11T11:47:17.354Z,98071.34
2023-04-11T11:49:47.638Z,98052.94
2023-04-11T11:52:31.759Z,98055.72
2023-04-11T11:54:58.743Z,98056.53
2023-04-11T11:57:25.918Z,98054.13
2023-04-11T11:59:56.345Z,98044.56
2023-04-11T12:02:27.374Z,98044.78
2023-04-11T12:04:59.933Z,98050.16
2023-04-11T12:07:27.118Z,98047.66
2023-04-11T12:10:19.790Z,98037.88
2023-04-11T12:12:53.105Z,98038.47
2023-04-11T12:15:23.208Z,98043.41
2023-04-11T12:17:54.224Z,98011.16
2023-04-11T12:20:25.063Z,98029.91
2023-04-11T12:22:54.136Z,98008.72
2023-04-11T12:25:22.221Z,98033.25
2023-04-11T12:27:48.941Z,98035.25
2023-04-11T12:30:15.569Z,98041.28
2023-04-11T12:32:42.514Z,98045.63
2023-04-11T12:35:10.499Z,97998.34
2023-04-11T12:37:37.710Z,98049.19
2023-04-11T12:40:12.066Z,98048.38
2023-04-11T12:42:53.254Z,98047.78
2023-04-11T12:45:23.281Z,98043.06
2023-04-11T12:47:49.832Z,98029.09
2023-04-11T12:50:16.462Z,98007.03
2023-04-11T12:52:43.205Z,98032.47
2023-04-11T12:55:10.006Z,98031.78
2023-04-11T12:57:36.746Z,98010.50
2023-04-11T13:00:07.685Z,98009.59
2023-04-11T13:02:42.178Z,98031.44
2023-04-11T13:05:11.898Z,98028.78
2023-04-11T13:07:39.133Z,98019.59
2023-04-11T13:10:09.195Z,98001.19
2023-04-11T13:12:44.458Z,98004.06
2023-04-11T13:15:13.354Z,98026.16
2023-04-11T13:17:40.211Z,98025.28
2023-04-11T13:20:10.298Z,98024.16
2023-04-11T13:22:38.068Z,98028.31
2023-04-11T13:25:04.986Z,98039.91
2023-04-11T13:27:32.018Z,98044.72
2023-04-11T13:29:58.492Z,98031.19
2023-04-11T13:32:25.153Z,98039.81
2023-04-11T13:34:51.605Z,98039.72
2023-04-11T13:37:18.155Z,98042.16
2023-04-11T13:39:44.600Z,98041.53
2023-04-11T13:42:11.690Z,98046.75
2023-04-11T13:44:38.134Z,98026.91
2023-04-11T13:47:04.775Z,98015.63
2023-04-11T13:49:31.199Z,98037.38
2023-04-11T13:51:57.805Z,98050.72
2023-04-11T13:54:24.363Z,98046.28
2023-04-11T13:56:51.022Z,98043.69
2023-04-11T13:59:17.449Z,98041.28
2023-04-11T14:01:44.201Z,98032.75
2023-04-11T14:04:11.775Z,98031.72
2023-04-11T14:06:39.374Z,98013.44
2023-04-11T14:09:05.910Z,98023.13
2023-04-11T14:11:32.483Z,98016.41
2023-04-11T14:13:59.030Z,98023.13
2023-04-11T14:16:25.656Z,98019.41
2023-04-11T14:18:52.150Z,98025.59
2023-04-11T14:21:18.885Z,98024.94
2023-04-11T14:23:45.369Z,98009.00
2023-04-11T14:26:11.817Z,98019.06
2023-04-11T14:28:38.363Z,98016.72
2023-04-11T14:31:05.133Z,98024.19
2023-04-11T14:33:32.192Z,98015.63
2023-04-11T14:35:58.812Z,98017.03
2023-04-11T14:38:25.337Z,97996.69
2023-04-11T14:40:51.858Z,98002.97
2023-04-11T14:43:18.316Z,98008.34
2023-04-11T14:45:44.774Z,98001.66
2023-04-11T14:48:11.701Z,98006.53
2023-04-11T14:50:38.157Z,98003.16
2023-04-11T14:53:04.579Z,98003.44
2023-04-11T14:55:31.118Z,98004.72
2023-04-11T14:57:57.573Z,98000.09
2023-04-11T15:00:24.952Z,97950.84
2023-04-11T15:02:53.882Z,97983.00
2023-04-11T15:05:21.668Z,97983.28
2023-04-11T15:07:49.898Z,97981.19
2023-04-11T15:10:18.785Z,97983.88
2023-04-11T15:12:45.775Z,97981.53
2023-04-11T15:15:12.785Z,97981.03
2023-04-11T15:17:45.586Z,97975.53
2023-04-11T15:20:14.279Z,97972.28
2023-04-11T15:22:49.872Z,97972.44
2023-04-11T15:25:16.700Z,97978.53
2023-04-11T15:27:43.792Z,97968.13
2023-04-11T15:30:11.259Z,97946.66
2023-04-11T15:32:43.372Z,97971.50
2023-04-11T15:35:10.627Z,97964.31
2023-04-11T15:37:37.208Z,97976.22
2023-04-11T15:40:06.554Z,97949.94
2023-04-11T15:42:35.318Z,97970.97
2023-04-11T15:45:02.559Z,97981.41
2023-04-11T15:51:35.594Z,97985.41
2023-04-11T15:54:02.084Z,97983.53
2023-04-11T15:56:28.587Z,97974.34
2023-04-11T15:58:55.462Z,97978.06
2023-04-11T16:01:23.353Z,97967.69
2023-04-11T16:03:50.260Z,97962.31
2023-04-11T16:06:18.554Z,97963.25
2023-04-11T16:08:45.423Z,97955.72
2023-04-11T16:11:11.941Z,97964.31
2023-04-11T16:13:38.393Z,97966.94
2023-04-11T16:16:05.324Z,97969.56
2023-04-11T16:18:31.777Z,97969.97
2023-04-11T16:20:58.232Z,97973.19
2023-04-11T16:23:24.698Z,97972.31
2023-04-11T16:25:51.143Z,97962.63
2023-04-11T16:28:17.574Z,97957.41
2023-04-11T16:30:44.011Z,97960.38
2023-04-11T16:33:10.553Z,97942.31
2023-04-11T16:35:37.022Z,97954.25
2023-04-11T16:38:04.229Z,97957.97
2023-04-11T16:40:31.732Z,97952.63
2023-04-11T16:42:58.151Z,97928.31
2023-04-11T16:45:24.747Z,97938.66
2023-04-11T16:47:51.187Z,97933.75
2023-04-11T16:50:17.970Z,97936.13
2023-04-11T16:52:44.460Z,97938.47
2023-04-11T16:55:11.106Z,97933.22
2023-04-11T16:57:37.566Z,97938.31
2023-04-11T17:00:10.054Z,97940.84
2023-04-11T17:02:36.542Z,97947.31
2023-04-11T17:05:04.334Z,97939.13
2023-04-11T17:07:31.322Z,97938.09
2023-04-11T17:09:57.875Z,97937.75
2023-04-11T17:12:24.304Z,97938.25
2023-04-11T17:14:52.481Z,97941.91
2023-04-11T17:17:20.557Z,97931.69
2023-04-11T17:19:47.028Z,97930.56
2023-04-11T17:22:13.488Z,97924.69
2023-04-11T17:24:40.567Z,97933.53
2023-04-11T17:27:06.993Z,97936.88
2023-04-11T17:29:33.445Z,97888.38
2023-04-11T17:31:59.858Z,97920.59
2023-04-11T17:34:26.429Z,97934.19
2023-04-11T17:36:52.831Z,97932.41
2023-04-11T17:39:19.561Z,97932.81
2023-04-11T17:41:46.803Z,97929.56
2023-04-11T17:44:13.665Z,97919.53
2023-04-11T17:46:40.138Z,97926.19
2023-04-11T17:49:06.632Z,97934.69
2023-04-11T17:51:33.106Z,97931.84
2023-04-11T17:53:59.740Z,97929.75
2023-04-11T17:56:26.970Z,97936.91
2023-04-11T17:58:53.581Z,97931.56
2023-04-11T18:01:20.666Z,97946.13
2023-04-11T18:03:47.411Z,97937.94
2023-04-11T18:06:13.978Z,97939.81
2023-04-11T18:08:49.660Z,97939.47
2023-04-11T18:11:16.662Z,97930.88
2023-04-11T18:13:43.767Z,97903.84
2023-04-11T18:16:10.825Z,97917.56
2023-04-11T18:18:37.442Z,97933.59
2023-04-11T18:21:06.646Z,97933.38
2023-04-11T18:23:34.010Z,97932.34
2023-04-11T18:26:00.502Z,97927.09
2023-04-11T18:28:26.924Z,97932.13
2023-04-11T18:30:53.453Z,97935.19
2023-04-11T18:33:20.946Z,97930.09
2023-04-11T18:35:47.878Z,97920.72
2023-04-11T18:38:14.759Z,97921.69
2023-04-11T18:40:41.265Z,97932.78
2023-04-11T18:43:08.205Z,97930.28
2023-04-11T18:45:35.335Z,97927.78
2023-04-11T18:48:02.188Z,97937.28
2023-04-11T18:50:30.612Z,97929.75
2023-04-11T18:53:01.342Z,97930.31
2023-04-11T18:55:31.355Z,97919.22
2023-04-11T18:57:59.990Z,97929.63
2023-04-11T19:00:28.613Z,97925.50
2023-04-11T19:02:55.340Z,97927.75
2023-04-11T19:05:25.082Z,97921.09
2023-04-11T19:07:52.019Z,97924.41
2023-04-11T19:10:18.585Z,97920.09
2023-04-11T19:12:45.171Z,97918.44
2023-04-11T19:15:12.212Z,97905.63
2023-04-11T19:17:38.841Z,97912.22
2023-04-11T19:20:12.919Z,97920.03
2023-04-11T19:22:40.908Z,97915.97
2023-04-11T19:25:10.501Z,97916.06
2023-04-11T19:27:40.035Z,97909.13
2023-04-11T19:30:08.464Z,97904.94
2023-04-11T19:32:38.369Z,97901.34
2023-04-11T19:35:08.650Z,97877.00
2023-04-11T19:37:36.269Z,97900.78
2023-04-11T19:40:16.633Z,97896.97
2023-04-11T19:42:44.309Z,97889.19
2023-04-11T19:45:11.435Z,97880.50
2023-04-11T19:47:39.744Z,97879.78
2023-04-11T19:50:09.231Z,97877.81
2023-04-11T19:52:35.669Z,97863.31
2023-04-11T19:55:02.238Z,97869.44
2023-04-11T19:57:29.053Z,97872.13
2023-04-11T19:59:55.629Z,97852.88
2023-04-11T20:02:22.225Z,97849.75
2023-04-11T20:04:49.443Z,97851.28
2023-04-11T20:07:16.344Z,97850.13
2023-04-11T20:09:42.887Z,97846.06
2023-04-11T20:12:09.456Z,97843.53
2023-04-11T20:14:37.860Z,97843.06
2023-04-11T20:17:05.562Z,97846.28
2023-04-11T20:19:33.148Z,97836.78
2023-04-11T20:22:00.768Z,97824.16
2023-04-11T20:24:27.727Z,97814.53
2023-04-11T20:26:54.327Z,97828.09
2023-04-11T20:29:24.581Z,97824.41
2023-04-11T20:31:51.008Z,97817.91
2023-04-11T20:34:17.430Z,97808.53
2023-04-11T20:36:44.529Z,97815.81
2023-04-11T20:39:10.990Z,97817.56
2023-04-11T20:41:40.242Z,97807.59
2023-04-11T20:44:06.813Z,97809.00
2023-04-11T20:46:33.501Z,97805.47
2023-04-11T20:48:59.987Z,97800.63
2023-04-11T20:51:26.604Z,97796.94
2023-04-11T20:53:53.081Z,97799.81
2023-04-11T20:56:19.524Z,97794.41
2023-04-11T20:58:46.496Z,97791.50
2023-04-11T21:01:13.428Z,97782.47
2023-04-11T21:03:42.429Z,97775.25
2023-04-11T21:06:10.207Z,97771.19
2023-04-11T21:08:37.335Z,97779.31
2023-04-11T21:11:05.597Z,97769.94
2023-04-11T21:13:32.177Z,97765.75
2023-04-11T21:15:58.806Z,97770.16
2023-04-11T21:18:25.472Z,97753.38
2023-04-11T21:20:51.870Z,97751.41
2023-04-11T21:23:18.504Z,97745.16
2023-04-11T21:25:44.881Z,97742.94
2023-04-11T21:28:11.331Z,97731.25
2023-04-11T21:30:39.345Z,97708.44
2023-04-11T21:33:05.930Z,97728.84
2023-04-11T21:35:32.449Z,97718.97
2023-04-11T21:37:58.857Z,97717.38
2023-04-11T21:40:25.336Z,97714.81
2023-04-11T21:42:51.849Z,97706.50
2023-04-11T21:45:18.388Z,97706.81
2023-04-11T21:47:44.913Z,97695.59
2023-04-11T21:50:11.556Z,97711.34
2023-04-11T21:52:38.098Z,97693.28
2023-04-11T21:55:07.229Z,97682.69
2023-04-11T21:57:35.690Z,97668.34
2023-04-11T22:00:02.211Z,97689.28
2023-04-11T22:02:38.867Z,97689.66
2023-04-11T22:05:08.729Z,97686.25
2023-04-11T22:07:46.113Z,97676.22
2023-04-11T22:10:13.014Z,97664.88
2023-04-11T22:12:40.538Z,97609.28
2023-04-11T22:15:07.831Z,97655.25
2023-04-11T22:17:34.484Z,97657.59
2023-04-11T22:20:00.955Z,97666.72
2023-04-11T22:22:30.430Z,97633.25
2023-04-11T22:24:59.866Z,97649.69
2023-04-11T22:27:27.202Z,97654.41
2023-04-11T22:29:56.062Z,97653.56
2023-04-11T22:32:23.900Z,97649.44
2023-04-11T22:34:50.482Z,97642.94
2023-04-11T22:37:17.123Z,97654.19
2023-04-11T22:39:43.648Z,97650.81
2023-04-11T22:42:11.582Z,97646.75
2023-04-11T22:44:38.256Z,97645.25
2023-04-11T22:47:07.038Z,97645.38
2023-04-11T22:49:42.920Z,97637.28
2023-04-11T22:52:14.988Z,97642.50
2023-04-11T22:54:42.573Z,97645.28
2023-04-11T22:57:09.372Z,97640.88
2023-04-11T22:59:36.720Z,97630.94
2023-04-11T23:02:03.420Z,97629.09
2023-04-11T23:04:31.421Z,97614.28
2023-04-11T23:06:58.117Z,97626.78
2023-04-11T23:09:24.542Z,97625.63
2023-04-11T23:11:52.223Z,97635.00
2023-04-11T23:14:20.807Z,97608.84
2023-04-11T23:16:47.253Z,97624.03
2023-04-11T23:19:13.948Z,97627.59
2023-04-11T23:21:41.058Z,97622.88
2023-04-11T23:24:07.608Z,97614.88
2023-04-11T23:26:34.037Z,97562.81
2023-04-11T23:29:02.216Z,97615.69
2023-04-11T23:31:29.197Z,97611.66
2023-04-11T23:33:56.962Z,97605.16
2023-04-11T23:36:23.711Z,97617.19
2023-04-11T23:38:50.187Z,97615.00
2023-04-11T23:41:16.633Z,97615.47
2023-04-11T23:43:43.109Z,97612.09
2023-04-11T23:46:17.872Z,97615.22
2023-04-11T23:48:44.823Z,97606.88
2023-04-11T23:51:11.306Z,97603.66
2023-04-11T23:53:37.926Z,97603.41
2023-04-11T23:56:04.651Z,97599.59
2023-04-11T23:58:31.182Z,97592.53
